createdAt,value
2019-04-04T00:00:50.088Z,97076.09
2019-04-04T00:02:54.807Z,97074.45
2019-04-04T00:04:58.718Z,97061.97
2019-04-04T00:07:03.471Z,97058.44
2019-04-04T00:09:10.402Z,97070.67
2019-04-04T00:11:14.147Z,97058.97
2019-04-04T00:13:17.930Z,97061.44
2019-04-04T00:15:21.675Z,97058.70
2019-04-04T00:17:25.422Z,97061.13
2019-04-04T00:19:30.630Z,97063.56
2019-04-04T00:21:34.632Z,97057.60
2019-04-04T00:23:44.535Z,97047.55
2019-04-04T00:25:48.272Z,97043.17
2019-04-04T00:27:54.087Z,97035.58
2019-04-04T00:29:57.843Z,97039.90
2019-04-04T00:32:02.699Z,97031.74
2019-04-04T00:34:06.540Z,97033.39
2019-04-04T00:36:10.284Z,97037.98
2019-04-04T00:38:14.041Z,97036.89
2019-04-04T00:40:17.773Z,97039.86
2019-04-04T00:42:24.534Z,97052.37
2019-04-04T00:44:29.269Z,97056.70
2019-04-04T00:46:33.173Z,97050.70
2019-04-04T00:48:38.940Z,97045.27
2019-04-04T00:50:43.964Z,97047.98
2019-04-04T00:52:47.753Z,97048.52
2019-04-04T00:54:51.576Z,97041.96
2019-04-04T00:56:55.289Z,97044.13
2019-04-04T00:58:59.028Z,97035.67
2019-04-04T01:01:02.832Z,97032.11
2019-04-04T01:03:07.611Z,97032.09
2019-04-04T01:05:11.697Z,97022.33
2019-04-04T01:07:15.416Z,97030.75
2019-04-04T01:09:19.144Z,97027.28
2019-04-04T01:11:22.882Z,97018.04
2019-04-04T01:13:27.835Z,97022.67
2019-04-04T01:15:31.890Z,97018.59
2019-04-04T01:17:37.813Z,97013.73
2019-04-04T01:19:41.561Z,97003.64
2019-04-04T01:21:45.316Z,96998.20
2019-04-04T01:23:50.146Z,96986.23
2019-04-04T01:25:53.897Z,96976.72
2019-04-04T01:27:57.646Z,96970.48
2019-04-04T01:30:01.481Z,96967.52
2019-04-04T01:32:06.198Z,96976.23
2019-04-04T01:34:10.022Z,96978.95
2019-04-04T01:36:13.772Z,96968.92
2019-04-04T01:38:18.579Z,96964.84
2019-04-04T01:40:23.334Z,96966.50
2019-04-04T01:42:27.060Z,96964.34
2019-04-04T01:44:31.876Z,96962.18
2019-04-04T01:46:35.632Z,96960.51
2019-04-04T01:48:44.526Z,96965.41
2019-04-04T01:50:48.357Z,96960.80
2019-04-04T01:52:54.155Z,96958.66
2019-04-04T01:54:57.943Z,96948.62
2019-04-04T01:57:01.659Z,96954.30
2019-04-04T01:59:05.723Z,96954.83
2019-04-04T02:01:09.468Z,96955.63
2019-04-04T02:03:13.212Z,96954.55
2019-04-04T02:05:17.046Z,96948.29
2019-04-04T02:07:20.779Z,96954.01
2019-04-04T02:09:25.611Z,96950.17
2019-04-04T02:11:30.428Z,96952.36
2019-04-04T02:13:34.248Z,96949.36
2019-04-04T02:15:39.019Z,96941.22
2019-04-04T02:17:45.973Z,96939.07
2019-04-04T02:19:49.778Z,96925.48
2019-04-04T02:21:53.540Z,96926.28
2019-04-04T02:23:57.298Z,96923.32
2019-04-04T02:26:05.257Z,96922.48
2019-04-04T02:28:08.865Z,96923.83
2019-04-04T02:30:16.161Z,96922.20
2019-04-04T02:32:19.857Z,96913.80
2019-04-04T02:34:23.581Z,96905.38
2019-04-04T02:36:28.439Z,96902.15
2019-04-04T02:38:32.272Z,96897.77
2019-04-04T02:40:36.148Z,96901.31
2019-04-04T02:42:40.616Z,96899.93
2019-04-04T02:44:44.426Z,96892.08
2019-04-04T02:46:48.248Z,96888.53
2019-04-04T02:48:53.576Z,96882.82
2019-04-04T02:50:58.533Z,96877.14
2019-04-04T02:53:03.251Z,96873.90
2019-04-04T02:55:07.034Z,96866.02
2019-04-04T02:57:11.809Z,96861.41
2019-04-04T02:59:20.140Z,96861.47
2019-04-04T03:01:21.030Z,96859.81
2019-04-04T03:03:24.841Z,96858.73
2019-04-04T03:05:34.583Z,96859.23
2019-04-04T03:07:38.561Z,96860.87
2019-04-04T03:09:43.704Z,96857.88
2019-04-04T03:11:47.808Z,96868.50
2019-04-04T03:13:51.683Z,96869.86
2019-04-04T03:15:56.741Z,96871.47
2019-04-04T03:18:04.057Z,96869.29
2019-04-04T03:20:06.478Z,96867.70
2019-04-04T03:22:10.229Z,96856.31
2019-04-04T03:24:13.989Z,96841.36
2019-04-04T03:26:23.618Z,96835.39
2019-04-04T03:28:31.469Z,96831.09
2019-04-04T03:30:34.000Z,96833.79
2019-04-04T03:32:37.766Z,96833.79
2019-04-04T03:34:47.998Z,96832.97
2019-04-04T03:36:47.160Z,96834.33
2019-04-04T03:38:50.909Z,96832.72
2019-04-04T03:40:57.808Z,96834.38
2019-04-04T03:43:00.203Z,96830.57
2019-04-04T03:45:04.303Z,96833.27
2019-04-04T03:47:10.431Z,96837.05
2019-04-04T03:49:14.570Z,96839.48
2019-04-04T03:51:18.325Z,96835.69
2019-04-04T03:53:22.709Z,96828.63
2019-04-04T03:55:28.020Z,96830.80
2019-04-04T03:57:33.020Z,96816.98
2019-04-04T03:59:36.753Z,96809.08
2019-04-04T04:01:45.517Z,96810.71
2019-04-04T04:03:46.062Z,96818.34
2019-04-04T04:05:49.805Z,96816.98
2019-04-04T04:07:53.562Z,96822.40
2019-04-04T04:09:59.801Z,96820.48
2019-04-04T04:12:02.868Z,96821.06
2019-04-04T04:14:06.610Z,96819.98
2019-04-04T04:16:10.472Z,96828.14
2019-04-04T04:18:14.214Z,96825.40
2019-04-04T04:20:23.767Z,96816.98
2019-04-04T04:22:29.771Z,96815.60
2019-04-04T04:24:34.481Z,96815.02
2019-04-04T04:26:40.959Z,96807.16
2019-04-04T04:28:43.703Z,96805.80
2019-04-04T04:30:47.528Z,96805.52
2019-04-04T04:32:55.828Z,96794.16
2019-04-04T04:34:56.836Z,96790.09
2019-04-04T04:37:00.601Z,96780.91
2019-04-04T04:39:06.398Z,96769.23
2019-04-04T04:41:11.126Z,96771.70
2019-04-04T04:43:15.799Z,96764.41
2019-04-04T04:45:19.911Z,96760.65
2019-04-04T04:47:24.170Z,96759.85
2019-04-04T04:49:27.939Z,96759.59
2019-04-04T04:51:31.669Z,96771.81
2019-04-04T04:53:35.434Z,96772.63
2019-04-04T04:55:39.183Z,96771.78
2019-04-04T04:57:42.918Z,96775.00
2019-04-04T04:59:46.747Z,96773.36
2019-04-04T05:01:51.368Z,96756.22
2019-04-04T05:03:56.569Z,96739.64
2019-04-04T05:06:02.624Z,96730.73
2019-04-04T05:08:09.646Z,96723.41
2019-04-04T05:10:14.955Z,96718.59
2019-04-04T05:12:21.638Z,96723.20
2019-04-04T05:14:24.943Z,96726.98
2019-04-04T05:16:28.700Z,96725.06
2019-04-04T05:18:34.462Z,96732.63
2019-04-04T05:20:40.250Z,96739.37
2019-04-04T05:22:44.028Z,96745.84
2019-04-04T05:25:07.042Z,96733.64
2019-04-04T05:26:54.290Z,96730.70
2019-04-04T05:28:58.033Z,96726.94
2019-04-04T05:31:01.866Z,96716.66
2019-04-04T05:33:05.606Z,96720.49
2019-04-04T05:35:10.466Z,96719.16
2019-04-04T05:37:14.275Z,96713.97
2019-04-04T05:39:18.779Z,96709.09
2019-04-04T05:41:22.606Z,96707.93
2019-04-04T05:43:26.355Z,96701.11
2019-04-04T05:45:30.105Z,96696.50
2019-04-04T05:47:35.899Z,96701.41
2019-04-04T05:49:39.655Z,96696.81
2019-04-04T05:51:43.399Z,96692.47
2019-04-04T05:53:47.163Z,96687.31
2019-04-04T05:55:50.935Z,96689.45
2019-04-04T05:57:54.706Z,96693.51
2019-04-04T05:59:58.430Z,96679.68
2019-04-04T06:02:02.185Z,96675.06
2019-04-04T06:04:06.036Z,96675.05
2019-04-04T06:06:10.670Z,96676.08
2019-04-04T06:08:14.521Z,96664.94
2019-04-04T06:10:19.090Z,96663.85
2019-04-04T06:12:32.932Z,96650.55
2019-04-04T06:14:36.699Z,96653.20
2019-04-04T06:16:40.439Z,96662.66
2019-04-04T06:18:44.179Z,96653.38
2019-04-04T06:20:50.264Z,96660.69
2019-04-04T06:22:56.061Z,96657.92
2019-04-04T06:25:06.361Z,96648.92
2019-04-04T06:27:10.122Z,96643.16
2019-04-04T06:29:17.368Z,96639.05
2019-04-04T06:31:21.472Z,96639.84
2019-04-04T06:33:25.275Z,96638.17
2019-04-04T06:35:31.099Z,96637.02
2019-04-04T06:37:34.856Z,96641.05
2019-04-04T06:39:39.652Z,96643.45
2019-04-04T06:41:43.486Z,96639.63
2019-04-04T06:43:48.326Z,96633.03
2019-04-04T06:45:52.071Z,96627.80
2019-04-04T06:47:57.603Z,96614.95
2019-04-04T06:50:01.298Z,96608.59
2019-04-04T06:52:06.083Z,96610.36
2019-04-04T06:54:10.828Z,96601.28
2019-04-04T06:56:14.534Z,96596.55
2019-04-04T06:58:18.287Z,96585.04
2019-04-04T07:00:22.021Z,96585.23
2019-04-04T07:02:26.841Z,96581.22
2019-04-04T07:04:31.880Z,96581.23
2019-04-04T07:06:36.203Z,96576.70
2019-04-04T07:08:39.946Z,96574.36
2019-04-04T07:10:57.784Z,96569.95
2019-04-04T07:13:14.524Z,96563.63
2019-04-04T07:15:03.797Z,96555.49
2019-04-04T07:17:08.828Z,96553.02
2019-04-04T07:19:19.103Z,96543.77
2019-04-04T07:21:22.863Z,96539.67
2019-04-04T07:23:28.631Z,96547.22
2019-04-04T07:25:32.302Z,96546.17
2019-04-04T07:27:36.046Z,96560.92
2019-04-04T07:29:39.793Z,96561.25
2019-04-04T07:31:43.533Z,96555.33
2019-04-04T07:33:47.258Z,96570.09
2019-04-04T07:35:51.010Z,96568.30
2019-04-04T07:37:57.458Z,96579.95
2019-04-04T07:40:03.134Z,96575.99
2019-04-04T07:42:05.791Z,96568.75
2019-04-04T07:44:09.533Z,96574.48
2019-04-04T07:46:16.603Z,96584.47
2019-04-04T07:48:18.795Z,96567.94
2019-04-04T07:50:24.152Z,96573.27
2019-04-04T07:52:28.038Z,96562.23
2019-04-04T07:54:32.253Z,96543.75
2019-04-04T07:56:35.979Z,96530.33
2019-04-04T07:58:39.756Z,96530.38
2019-04-04T08:00:43.501Z,96532.34
2019-04-04T08:02:53.195Z,96535.31
2019-04-04T08:04:57.028Z,96541.67
2019-04-04T08:07:00.769Z,96548.99
2019-04-04T08:09:06.660Z,96549.83
2019-04-04T08:11:13.211Z,96555.70
2019-04-04T08:13:15.906Z,96550.48
2019-04-04T08:15:19.725Z,96546.03
2019-04-04T08:17:23.551Z,96540.37
2019-04-04T08:19:27.296Z,96542.97
2019-04-04T08:21:31.027Z,96534.55
2019-04-04T08:23:34.778Z,96539.05
2019-04-04T08:25:38.624Z,96543.53
2019-04-04T08:27:42.421Z,96534.80
2019-04-04T08:29:46.185Z,96536.25
2019-04-04T08:31:49.956Z,96530.98
2019-04-04T08:33:53.698Z,96523.36
2019-04-04T08:36:05.946Z,96529.50
2019-04-04T08:38:02.955Z,96530.09
2019-04-04T08:40:07.186Z,96518.85
2019-04-04T08:42:10.940Z,96523.59
2019-04-04T08:44:14.681Z,96527.60
2019-04-04T08:46:20.022Z,96532.06
2019-04-04T08:48:23.952Z,96525.03
2019-04-04T08:50:27.726Z,96515.69
2019-04-04T08:52:31.477Z,96513.28
2019-04-04T08:54:35.240Z,96522.02
2019-04-04T08:56:38.989Z,96530.48
2019-04-04T08:58:43.011Z,96532.14
2019-04-04T09:00:46.898Z,96534.32
2019-04-04T09:02:50.626Z,96530.31
2019-04-04T09:04:55.463Z,96529.75
2019-04-04T09:06:59.195Z,96540.70
2019-04-04T09:09:04.565Z,96543.44
2019-04-04T09:11:09.338Z,96551.63
2019-04-04T09:13:13.055Z,96541.72
2019-04-04T09:15:17.061Z,96541.39
2019-04-04T09:17:20.802Z,96543.50
2019-04-04T09:19:24.537Z,96546.25
2019-04-04T09:21:28.349Z,96557.45
2019-04-04T09:23:32.093Z,96557.16
2019-04-04T09:25:35.931Z,96564.44
2019-04-04T09:27:39.809Z,96565.38
2019-04-04T09:29:43.563Z,96562.72
2019-04-04T09:31:47.390Z,96572.22
2019-04-04T09:33:51.182Z,96572.81
2019-04-04T09:35:54.930Z,96570.59
2019-04-04T09:37:59.675Z,96564.93
2019-04-04T09:40:03.547Z,96570.98
2019-04-04T09:42:08.275Z,96561.92
2019-04-04T09:44:12.032Z,96559.62
2019-04-04T09:46:15.751Z,96557.73
2019-04-04T09:48:19.492Z,96555.01
2019-04-04T09:50:23.263Z,96543.50
2019-04-04T09:52:27.071Z,96545.75
2019-04-04T09:54:30.788Z,96545.75
2019-04-04T09:56:34.527Z,96551.11
2019-04-04T09:58:38.254Z,96541.96
2019-04-04T10:00:42.358Z,96554.33
2019-04-04T10:02:46.225Z,96554.45
2019-04-04T10:04:49.971Z,96548.95
2019-04-04T10:06:53.691Z,96555.31
2019-04-04T10:08:57.420Z,96547.80
2019-04-04T10:11:01.157Z,96546.09
2019-04-04T10:13:05.068Z,96547.13
2019-04-04T10:15:09.563Z,96558.34
2019-04-04T10:17:13.300Z,96558.33
2019-04-04T10:19:17.046Z,96549.14
2019-04-04T10:21:20.795Z,96556.20
2019-04-04T10:23:24.529Z,96555.73
2019-04-04T10:25:28.279Z,96551.75
2019-04-04T10:27:32.092Z,96561.11
2019-04-04T10:29:35.901Z,96566.33
2019-04-04T10:31:39.630Z,96569.77
2019-04-04T10:33:43.367Z,96571.30
2019-04-04T10:35:47.098Z,96562.72
2019-04-04T10:37:50.852Z,96562.72
2019-04-04T10:39:54.747Z,96566.95
2019-04-04T10:41:58.484Z,96556.70
2019-04-04T10:44:02.226Z,96553.56
2019-04-04T10:46:06.126Z,96560.36
2019-04-04T10:48:09.864Z,96560.45
2019-04-04T10:50:14.695Z,96557.55
2019-04-04T10:52:18.415Z,96557.09
2019-04-04T10:54:22.161Z,96563.73
2019-04-04T10:56:25.910Z,96562.20
2019-04-04T10:58:29.661Z,96566.78
2019-04-04T11:00:33.478Z,96561.40
2019-04-04T11:02:37.298Z,96562.86
2019-04-04T11:04:41.051Z,96561.83
2019-04-04T11:06:44.801Z,96555.06
2019-04-04T11:08:48.529Z,96564.97
2019-04-04T11:10:52.342Z,96553.91
2019-04-04T11:12:56.062Z,96554.91
2019-04-04T11:14:59.815Z,96553.91
2019-04-04T11:17:03.648Z,96558.51
2019-04-04T11:19:09.730Z,96558.30
2019-04-04T11:21:12.864Z,96560.18
2019-04-04T11:23:16.600Z,96565.05
2019-04-04T11:25:20.330Z,96575.34
2019-04-04T11:27:24.072Z,96580.89
2019-04-04T11:29:27.885Z,96584.78
2019-04-04T11:31:31.690Z,96586.30
2019-04-04T11:33:35.439Z,96593.29
2019-04-04T11:35:39.204Z,96577.45
2019-04-04T11:37:42.937Z,96575.44
2019-04-04T11:39:54.648Z,96568.61
2019-04-04T11:41:53.148Z,96570.87
2019-04-04T11:43:56.878Z,96561.83
2019-04-04T11:46:00.654Z,96566.10
2019-04-04T11:48:04.539Z,96559.86
2019-04-04T11:50:09.644Z,96554.06
2019-04-04T11:52:13.393Z,96548.49
2019-04-04T11:54:17.146Z,96558.67
2019-04-04T11:56:20.895Z,96555.67
2019-04-04T11:58:24.627Z,96554.83
2019-04-04T12:00:31.875Z,96551.27
2019-04-04T12:02:35.694Z,96546.85
2019-04-04T12:04:39.437Z,96539.30
2019-04-04T12:06:43.204Z,96547.13
2019-04-04T12:08:46.955Z,96540.91
2019-04-04T12:10:50.710Z,96540.72
2019-04-04T12:12:54.425Z,96542.77
2019-04-04T12:15:00.156Z,96545.30
2019-04-04T12:17:04.009Z,96543.16
2019-04-04T12:19:07.739Z,96533.08
2019-04-04T12:21:11.565Z,96532.36
2019-04-04T12:23:15.376Z,96532.50
2019-04-04T12:25:19.180Z,96531.44
2019-04-04T12:27:22.923Z,96538.39
2019-04-04T12:29:26.684Z,96542.13
2019-04-04T12:31:30.440Z,96541.78
2019-04-04T12:33:34.191Z,96539.69
2019-04-04T12:35:38.091Z,96538.09
2019-04-04T12:37:41.970Z,96541.06
2019-04-04T12:39:45.691Z,96539.95
2019-04-04T12:41:49.505Z,96540.86
2019-04-04T12:43:53.220Z,96554.78
2019-04-04T12:45:56.994Z,96544.52
2019-04-04T12:48:00.843Z,96562.15
2019-04-04T12:50:05.446Z,96580.84
2019-04-04T12:52:09.185Z,96580.89
2019-04-04T12:54:12.922Z,96589.86
2019-04-04T12:56:16.667Z,96586.17
2019-04-04T12:58:20.504Z,96588.16
2019-04-04T13:00:24.330Z,96598.40
2019-04-04T13:02:28.077Z,96608.17
2019-04-04T13:04:32.334Z,96611.66
2019-04-04T13:06:36.136Z,96614.77
2019-04-04T13:08:39.959Z,96609.15
2019-04-04T13:10:43.757Z,96610.29
2019-04-04T13:12:47.490Z,96623.17
2019-04-04T13:14:51.237Z,96617.77
2019-04-04T13:16:54.987Z,96611.34
2019-04-04T13:18:58.744Z,96605.53
2019-04-04T13:21:02.550Z,96601.41
2019-04-04T13:23:06.367Z,96608.41
2019-04-04T13:25:10.834Z,96619.09
2019-04-04T13:27:17.569Z,96628.94
2019-04-04T13:29:20.164Z,96627.77
2019-04-04T13:31:23.956Z,96622.70
2019-04-04T13:33:27.739Z,96629.94
2019-04-04T13:35:31.482Z,96632.95
2019-04-04T13:37:35.223Z,96643.05
2019-04-04T13:39:38.947Z,96644.99
2019-04-04T13:41:42.777Z,96652.90
2019-04-04T13:43:46.479Z,96648.37
2019-04-04T13:45:51.214Z,96642.55
2019-04-04T13:47:54.974Z,96645.20
2019-04-04T13:49:58.715Z,96650.36
2019-04-04T13:52:02.558Z,96658.27
2019-04-04T13:54:06.415Z,96667.47
2019-04-04T13:56:10.217Z,96668.07
2019-04-04T13:58:14.203Z,96670.58
2019-04-04T14:00:18.578Z,96666.56
2019-04-04T14:02:22.342Z,96677.33
2019-04-04T14:04:26.060Z,96685.59
2019-04-04T14:06:29.834Z,96694.42
2019-04-04T14:08:33.563Z,96703.70
2019-04-04T14:10:37.364Z,96699.46
2019-04-04T14:12:41.098Z,96699.78
2019-04-04T14:14:44.831Z,96711.56
2019-04-04T14:16:48.567Z,96711.13
2019-04-04T14:18:52.313Z,96715.54
2019-04-04T14:21:03.317Z,96724.80
2019-04-04T14:23:02.162Z,96728.47
2019-04-04T14:25:06.206Z,96736.45
2019-04-04T14:27:10.019Z,96738.27
2019-04-04T14:29:26.616Z,96736.83
2019-04-04T14:31:20.403Z,96739.77
2019-04-04T14:33:24.144Z,96739.95
2019-04-04T14:35:28.861Z,96739.20
2019-04-04T14:37:32.735Z,96746.63
2019-04-04T14:39:36.467Z,96752.23
2019-04-04T14:41:40.219Z,96751.22
2019-04-04T14:43:43.971Z,96766.45
2019-04-04T14:45:47.710Z,96769.94
2019-04-04T14:47:51.466Z,96756.29
2019-04-04T14:49:55.182Z,96754.19
2019-04-04T14:52:00.928Z,96772.17
2019-04-04T14:54:04.725Z,96765.23
2019-04-04T14:56:08.460Z,96773.08
2019-04-04T14:58:12.199Z,96775.56
2019-04-04T15:00:17.317Z,96773.72
2019-04-04T15:02:21.278Z,96775.98
2019-04-04T15:04:25.038Z,96776.86
2019-04-04T15:06:28.810Z,96779.16
2019-04-04T15:08:32.651Z,96787.71
2019-04-04T15:10:38.867Z,96795.06
2019-04-04T15:12:41.845Z,96795.75
2019-04-04T15:14:45.616Z,96806.63
2019-04-04T15:16:49.337Z,96816.05
2019-04-04T15:18:53.079Z,96808.13
2019-04-04T15:20:57.043Z,96814.64
2019-04-04T15:23:00.896Z,96806.23
2019-04-04T15:25:05.188Z,96817.02
2019-04-04T15:27:08.700Z,96832.34
2019-04-04T15:29:12.432Z,96841.61
2019-04-04T15:31:16.169Z,96851.31
2019-04-04T15:33:19.922Z,96849.66
2019-04-04T15:35:23.666Z,96851.87
2019-04-04T15:37:27.406Z,96853.09
2019-04-04T15:39:31.127Z,96858.96
2019-04-04T15:41:37.145Z,96861.47
2019-04-04T15:43:40.400Z,96846.77
2019-04-04T15:45:44.226Z,96849.63
2019-04-04T15:47:47.991Z,96842.17
2019-04-04T15:49:51.710Z,96824.02
2019-04-04T15:51:55.453Z,96813.59
2019-04-04T15:53:59.171Z,96810.84
2019-04-04T15:56:02.983Z,96816.19
2019-04-04T15:58:06.804Z,96821.80
2019-04-04T16:00:11.287Z,96825.34
2019-04-04T16:02:16.081Z,96828.38
2019-04-04T16:04:19.892Z,96829.59
2019-04-04T16:06:23.631Z,96851.23
2019-04-04T16:08:27.448Z,96864.70
2019-04-04T16:10:31.194Z,96861.08
2019-04-04T16:12:34.954Z,96870.41
2019-04-04T16:14:38.697Z,96871.09
2019-04-04T16:16:42.434Z,96866.39
2019-04-04T16:18:46.172Z,96869.88
2019-04-04T16:20:49.984Z,96862.83
2019-04-04T16:22:53.711Z,96876.84
2019-04-04T16:24:57.429Z,96880.45
2019-04-04T16:27:01.223Z,96886.22
2019-04-04T16:29:04.966Z,96891.70
2019-04-04T16:31:08.725Z,96885.18
2019-04-04T16:33:13.472Z,96882.30
2019-04-04T16:35:17.206Z,96887.95
2019-04-04T16:37:20.947Z,96893.55
2019-04-04T16:39:24.726Z,96891.80
2019-04-04T16:41:28.457Z,96895.53
2019-04-04T16:43:32.194Z,96899.48
2019-04-04T16:45:35.911Z,96900.76
2019-04-04T16:47:39.713Z,96892.61
2019-04-04T16:49:43.519Z,96884.90
2019-04-04T16:51:47.249Z,96881.03
2019-04-04T16:53:50.960Z,96880.86
2019-04-04T16:55:54.829Z,96877.09
2019-04-04T16:57:58.569Z,96882.89
2019-04-04T17:00:02.480Z,96888.96
2019-04-04T17:02:06.281Z,96893.67
2019-04-04T17:04:11.111Z,96900.77
2019-04-04T17:06:14.840Z,96901.03
2019-04-04T17:08:18.638Z,96906.53
2019-04-04T17:10:22.374Z,96912.16
2019-04-04T17:12:26.116Z,96926.30
2019-04-04T17:14:29.858Z,96922.91
2019-04-04T17:16:33.591Z,96935.07
2019-04-04T17:18:38.335Z,96929.34
2019-04-04T17:20:42.083Z,96939.77
2019-04-04T17:22:45.909Z,96950.44
2019-04-04T17:24:50.687Z,96949.72
2019-04-04T17:26:57.277Z,96956.91
2019-04-04T17:28:59.888Z,96958.73
2019-04-04T17:31:06.639Z,96961.20
2019-04-04T17:33:09.292Z,96964.97
2019-04-04T17:35:13.243Z,96957.18
2019-04-04T17:37:18.005Z,96954.91
2019-04-04T17:39:21.948Z,96954.52
2019-04-04T17:41:25.626Z,96941.46
2019-04-04T17:43:29.418Z,96944.00
2019-04-04T17:45:33.391Z,96943.45
2019-04-04T17:47:38.569Z,96952.14
2019-04-04T17:49:44.435Z,96955.97
2019-04-04T17:51:48.192Z,96960.92
2019-04-04T17:53:53.074Z,96966.30
2019-04-04T17:55:58.599Z,96963.02
2019-04-04T17:58:02.397Z,96965.16
2019-04-04T18:00:07.695Z,96976.87
2019-04-04T18:02:11.564Z,96994.10
2019-04-04T18:04:15.304Z,96995.58
2019-04-04T18:06:19.053Z,97004.70
2019-04-04T18:08:22.770Z,97011.61
2019-04-04T18:10:26.519Z,97020.37
2019-04-04T18:12:39.715Z,97014.13
2019-04-04T18:14:35.770Z,97026.25
2019-04-04T18:16:39.574Z,97032.28
2019-04-04T18:18:43.320Z,97042.98
2019-04-04T18:20:47.073Z,97052.59
2019-04-04T18:22:52.918Z,97050.42
2019-04-04T18:24:56.679Z,97057.78
2019-04-04T18:27:00.410Z,97056.75
2019-04-04T18:29:04.223Z,97061.70
2019-04-04T18:31:08.045Z,97070.97
2019-04-04T18:33:11.810Z,97074.87
2019-04-04T18:35:22.050Z,97088.05
2019-04-04T18:37:25.786Z,97094.71
2019-04-04T18:39:29.548Z,97100.55
2019-04-04T18:41:33.261Z,97104.44
2019-04-04T18:43:36.977Z,97095.77
2019-04-04T18:45:40.869Z,97099.91
2019-04-04T18:47:44.607Z,97095.30
2019-04-04T18:49:48.383Z,97095.30
2019-04-04T18:51:52.135Z,97096.66
2019-04-04T18:53:55.850Z,97109.16
2019-04-04T18:55:59.590Z,97114.05
2019-04-04T18:58:03.318Z,97112.41
2019-04-04T19:00:08.558Z,97115.77
2019-04-04T19:02:12.357Z,97123.98
2019-04-04T19:04:16.250Z,97123.43
2019-04-04T19:06:20.127Z,97116.09
2019-04-04T19:08:23.857Z,97106.59
2019-04-04T19:10:27.691Z,97108.78
2019-04-04T19:12:32.493Z,97113.42
2019-04-04T19:14:36.213Z,97119.16
2019-04-04T19:16:40.062Z,97128.98
2019-04-04T19:18:45.853Z,97124.94
2019-04-04T19:20:49.589Z,97105.59
2019-04-04T19:22:53.305Z,97103.13
2019-04-04T19:24:57.041Z,97100.69
2019-04-04T19:27:00.867Z,97099.32
2019-04-04T19:29:04.864Z,97104.80
2019-04-04T19:31:08.761Z,97102.91
2019-04-04T19:33:12.567Z,97105.63
2019-04-04T19:35:17.128Z,97117.34
2019-04-04T19:37:20.863Z,97115.41
2019-04-04T19:39:24.652Z,97123.33
2019-04-04T19:41:28.393Z,97135.86
2019-04-04T19:43:32.193Z,97148.11
2019-04-04T19:45:36.043Z,97148.72
2019-04-04T19:47:39.842Z,97146.59
2019-04-04T19:49:43.675Z,97134.63
2019-04-04T19:51:47.399Z,97115.34
2019-04-04T19:53:51.205Z,97114.52
2019-04-04T19:55:55.112Z,97130.31
2019-04-04T19:57:58.878Z,97143.89
2019-04-04T20:00:02.583Z,97146.62
2019-04-04T20:02:06.489Z,97143.64
2019-04-04T20:04:10.222Z,97147.21
2019-04-04T20:06:13.957Z,97153.22
2019-04-04T20:08:17.685Z,97157.05
2019-04-04T20:10:21.405Z,97165.50
2019-04-04T20:12:25.143Z,97173.14
2019-04-04T20:14:29.207Z,97181.58
2019-04-04T20:16:33.057Z,97184.09
2019-04-04T20:18:36.772Z,97199.62
2019-04-04T20:20:40.515Z,97202.91
2019-04-04T20:22:44.230Z,97216.80
2019-04-04T20:24:48.049Z,97213.02
2019-04-04T20:26:51.768Z,97215.78
2019-04-04T20:28:55.494Z,97213.92
2019-04-04T20:30:59.317Z,97214.74
2019-04-04T20:33:03.043Z,97221.83
2019-04-04T20:35:07.378Z,97228.64
2019-04-04T20:37:11.089Z,97234.09
2019-04-04T20:39:15.993Z,97241.16
2019-04-04T20:41:19.745Z,97244.17
2019-04-04T20:43:24.487Z,97244.71
2019-04-04T20:45:28.301Z,97240.63
2019-04-04T20:47:33.765Z,97243.36
2019-04-04T20:49:37.726Z,97249.33
2019-04-04T20:51:41.466Z,97243.36
2019-04-04T20:53:45.204Z,97238.74
2019-04-04T20:55:48.953Z,97238.18
2019-04-04T20:57:52.693Z,97228.67
2019-04-04T20:59:56.410Z,97215.08
2019-04-04T21:02:00.157Z,97207.21
2019-04-04T21:04:03.891Z,97208.85
2019-04-04T21:06:07.715Z,97212.92
2019-04-04T21:08:11.487Z,97202.84
2019-04-04T21:10:15.846Z,97205.31
2019-04-04T21:12:19.651Z,97212.94
2019-04-04T21:14:23.389Z,97223.23
2019-04-04T21:16:27.165Z,97216.19
2019-04-04T21:18:30.913Z,97214.55
2019-04-04T21:20:34.653Z,97216.19
2019-04-04T21:22:38.490Z,97213.72
2019-04-04T21:24:42.224Z,97226.77
2019-04-04T21:26:45.958Z,97235.75
2019-04-04T21:28:49.750Z,97242.55
2019-04-04T21:30:53.545Z,97238.19
2019-04-04T21:32:57.354Z,97234.92
2019-04-04T21:35:01.113Z,97242.25
2019-04-04T21:37:04.858Z,97252.58
2019-04-04T21:39:08.871Z,97253.94
2019-04-04T21:41:12.668Z,97257.19
2019-04-04T21:43:16.390Z,97261.27
2019-04-04T21:45:20.210Z,97263.44
2019-04-04T21:47:23.950Z,97268.33
2019-04-04T21:49:27.681Z,97265.33
2019-04-04T21:51:31.430Z,97270.50
2019-04-04T21:53:35.144Z,97281.89
2019-04-04T21:55:38.910Z,97280.80
2019-04-04T21:57:42.648Z,97280.50
2019-04-04T21:59:46.379Z,97280.20
2019-04-04T22:01:50.355Z,97283.75
2019-04-04T22:03:54.133Z,97284.04
2019-04-04T22:05:58.014Z,97288.92
2019-04-04T22:08:01.740Z,97291.89
2019-04-04T22:10:06.201Z,97288.10
2019-04-04T22:12:09.947Z,97285.64
2019-04-04T22:14:21.688Z,97288.64
2019-04-04T22:16:19.426Z,97291.59
2019-04-04T22:18:23.164Z,97299.16
2019-04-04T22:20:26.950Z,97303.50
2019-04-04T22:22:30.704Z,97298.06
2019-04-04T22:24:34.453Z,97313.53
2019-04-04T22:26:38.264Z,97313.27
2019-04-04T22:28:42.039Z,97312.18
2019-04-04T22:30:45.811Z,97317.06
2019-04-04T22:32:49.578Z,97312.70
2019-04-04T22:34:53.312Z,97320.03
2019-04-04T22:36:57.079Z,97316.22
2019-04-04T22:39:00.890Z,97322.17
2019-04-04T22:41:04.775Z,97324.89
2019-04-04T22:43:08.727Z,97324.09
2019-04-04T22:45:12.562Z,97323.25
2019-04-04T22:47:16.306Z,97322.42
2019-04-04T22:49:20.113Z,97320.23
2019-04-04T22:51:23.843Z,97325.64
2019-04-04T22:53:27.577Z,97330.23
2019-04-04T22:55:31.311Z,97337.83
2019-04-04T22:57:35.048Z,97339.46
2019-04-04T22:59:38.764Z,97332.91
2019-04-04T23:01:42.509Z,97336.17
2019-04-04T23:03:46.243Z,97336.95
2019-04-04T23:05:49.977Z,97339.92
2019-04-04T23:07:53.795Z,97344.52
2019-04-04T23:09:57.524Z,97342.33
2019-04-04T23:12:02.264Z,97349.41
2019-04-04T23:14:06.098Z,97356.44
2019-04-04T23:16:09.847Z,97359.98
2019-04-04T23:18:13.650Z,97352.36
2019-04-04T23:20:17.413Z,97362.43
2019-04-04T23:22:21.155Z,97356.72
2019-04-04T23:24:24.896Z,97353.98
2019-04-04T23:26:28.654Z,97355.04
2019-04-04T23:28:32.405Z,97355.02
2019-04-04T23:30:36.135Z,97349.88
2019-04-04T23:32:39.906Z,97348.50
2019-04-04T23:34:43.630Z,97358.52
2019-04-04T23:36:47.437Z,97355.81
2019-04-04T23:38:51.163Z,97358.55
2019-04-04T23:40:55.886Z,97357.73
2019-04-04T23:42:59.649Z,97361.78
2019-04-04T23:45:03.474Z,97359.62
2019-04-04T23:47:07.195Z,97361.22
2019-04-04T23:49:10.928Z,97354.20
2019-04-04T23:51:14.654Z,97357.44
2019-04-04T23:53:18.481Z,97344.94
2019-04-04T23:55:22.215Z,97345.23
2019-04-04T23:57:25.951Z,97342.77
2019-04-04T23:59:29.721Z,97337.33
